Time;durP1;ratioP1;P1;durP2;ratioP2;P2;SDS_P1;SDS_P2;PMS_P1;PMS_P2;Temp;Humidity;BMP_temperature;BMP_pressure;BME280_temperature;BME280_humidity;BME280_pressure;Samples;Min_cycle;Max_cycle;Signal;HPM_P1;HPM_P2
2021/08/25 00:00:21;;;;;;;6.90;3.17;;;16.60;99.90;;;16.45;81.76;101771.31;4201729;28;20016;-67
2021/08/25 00:02:22;;;;;;;6.55;3.10;;;16.60;99.90;;;16.42;81.72;101770.81;4201999;28;20083;-67
2021/08/25 00:04:23;;;;;;;5.20;2.90;;;16.60;99.90;;;16.37;82.16;101770.47;4202037;28;20060;-67
2021/08/25 00:06:24;;;;;;;6.72;3.10;;;16.50;99.90;;;16.30;82.57;101770.34;4169898;28;20456;-67
2021/08/25 00:08:24;;;;;;;7.85;3.90;;;16.50;99.90;;;16.28;82.87;101769.66;4169740;28;20059;-67
2021/08/25 00:10:25;;;;;;;8.85;3.35;;;16.50;99.90;;;16.35;82.21;101776.00;4169683;28;20033;-67
2021/08/25 00:12:26;;;;;;;9.63;3.28;;;16.40;99.90;;;16.39;82.37;101773.81;4201739;28;20016;-67
2021/08/25 00:14:28;;;;;;;5.35;2.92;;;16.40;99.90;;;16.43;81.92;101773.31;4170067;28;20026;-67
2021/08/25 00:16:29;;;;;;;7.82;3.30;;;16.50;99.90;;;16.44;81.59;101764.31;4169494;28;20025;-67
2021/08/25 00:18:30;;;;;;;5.32;3.60;;;16.40;99.90;;;16.34;82.30;101766.31;4169351;28;20029;-67
2021/08/25 00:20:31;;;;;;;6.85;3.10;;;16.40;99.90;;;16.26;82.53;101762.84;4169851;28;20049;-67
2021/08/25 00:22:32;;;;;;;6.88;3.20;;;16.40;99.90;;;16.34;82.02;101768.16;4169769;28;20029;-67
2021/08/25 00:24:33;;;;;;;7.85;4.00;;;16.40;99.90;;;16.27;81.98;101757.38;4169745;28;20056;-67
2021/08/25 00:26:34;;;;;;;4.88;2.65;;;16.40;99.90;;;16.26;82.65;101755.69;4169308;28;20040;-67
2021/08/25 00:28:36;;;;;;;7.65;3.17;;;16.30;99.90;;;16.25;82.48;101758.50;4169333;28;20022;-67
2021/08/25 00:30:37;;;;;;;6.00;2.85;;;16.30;99.90;;;16.19;83.14;101754.69;4169380;28;20037;-67
2021/08/25 00:32:38;;;;;;;7.50;3.53;;;16.30;99.90;;;16.16;82.55;101741.72;4169430;28;20026;-67
2021/08/25 00:34:39;;;;;;;6.38;3.20;;;16.30;99.90;;;16.15;83.41;101747.22;4169552;28;20113;-67
2021/08/25 00:36:40;;;;;;;6.25;3.40;;;16.30;99.90;;;16.17;83.40;101742.56;4169539;28;20019;-67
2021/08/25 00:38:41;;;;;;;9.48;3.47;;;16.30;99.90;;;16.16;83.54;101744.38;4169301;28;20436;-67
2021/08/25 00:40:43;;;;;;;8.55;3.30;;;16.30;99.90;;;16.08;83.73;101740.91;4169472;28;20025;-67
2021/08/25 00:42:44;;;;;;;5.53;3.33;;;16.30;99.90;;;16.13;83.73;101734.06;4169401;28;20114;-67
2021/08/25 00:44:46;;;;;;;9.77;3.92;;;16.20;99.90;;;16.08;83.75;101732.91;4169239;28;20032;-67
2021/08/25 00:46:47;;;;;;;6.57;3.30;;;16.10;99.90;;;16.02;83.94;101727.28;4169323;28;20040;-67
2021/08/25 00:48:49;;;;;;;8.32;3.50;;;16.20;99.90;;;16.08;84.11;101730.25;4168950;28;20075;-67
2021/08/25 00:50:52;;;;;;;7.80;3.40;;;16.10;99.90;;;15.91;84.45;101724.13;4169082;28;20030;-67
2021/08/25 00:52:53;;;;;;;7.88;3.97;;;16.10;99.90;;;15.96;85.01;101727.09;4169327;28;20172;-67
2021/08/25 00:54:54;;;;;;;7.53;3.95;;;16.10;99.90;;;15.99;84.79;101726.75;4169474;28;20021;-67
2021/08/25 00:56:58;;;;;;;10.73;4.00;;;16.00;99.90;;;15.93;85.45;101722.94;4168828;28;20420;-67
2021/08/25 00:58:59;;;;;;;5.20;3.50;;;16.00;99.90;;;15.92;85.47;101726.59;4200747;28;20483;-67
2021/08/25 01:01:07;;;;;;;5.93;3.20;;;16.00;99.90;;;15.99;85.62;101732.09;4168964;28;20055;-67
2021/08/25 01:03:26;;;;;;;6.88;3.33;;;16.00;99.90;;;15.99;85.58;101721.44;4200127;28;20025;-68
2021/08/25 01:05:29;;;;;;;8.25;3.40;;;16.10;99.90;;;16.04;85.94;101738.56;4199259;28;20043;-67
2021/08/25 01:07:32;;;;;;;10.52;3.80;;;16.00;99.90;;;15.91;86.79;101735.59;4169139;28;20025;-67
2021/08/25 01:09:38;;;;;;;5.85;3.85;;;16.00;99.90;;;16.00;86.55;101723.97;4177186;28;20029;-67
2021/08/25 01:11:44;;;;;;;6.47;3.47;;;16.00;99.90;;;16.00;86.71;101728.44;4172215;28;20463;-67
2021/08/25 01:13:45;;;;;;;6.93;4.47;;;16.00;99.90;;;15.91;87.47;101730.28;4168982;28;20166;-67
2021/08/25 01:15:46;;;;;;;7.40;4.03;;;16.00;99.90;;;15.89;87.59;101728.75;4168887;28;20033;-67
2021/08/25 01:17:51;;;;;;;8.10;3.65;;;16.00;99.90;;;15.87;88.42;101728.94;4168763;28;20033;-67
2021/08/25 01:20:11;;;;;;;9.43;3.65;;;16.00;99.90;;;15.91;88.29;101724.13;4200165;28;20025;-68
2021/08/25 01:22:14;;;;;;;8.20;4.05;;;16.00;99.90;;;15.85;88.72;101719.47;4171392;28;20029;-67
2021/08/25 01:24:18;;;;;;;7.15;4.22;;;16.00;99.90;;;15.91;88.17;101726.78;4167830;28;20030;-67
2021/08/25 01:26:19;;;;;;;6.18;3.83;;;15.90;99.90;;;15.84;89.00;101729.28;4168782;28;20033;-67
2021/08/25 01:28:26;;;;;;;9.68;4.35;;;15.90;99.90;;;15.87;88.61;101728.09;4168669;28;20030;-67
2021/08/25 01:30:31;;;;;;;9.70;4.20;;;15.90;99.90;;;15.81;88.97;101723.44;4199706;28;20028;-67
2021/08/25 01:32:36;;;;;;;10.40;3.85;;;15.90;99.90;;;15.71;89.32;101718.28;4168871;28;20553;-67
2021/08/25 01:34:54;;;;;;;6.47;3.88;;;15.90;99.90;;;15.65;89.87;101708.28;4168767;28;20025;-67
2021/08/25 01:36:55;;;;;;;9.45;4.00;;;15.90;99.90;;;15.64;90.14;101717.28;4168865;28;20025;-67
2021/08/25 01:38:57;;;;;;;11.25;4.20;;;15.80;99.90;;;15.64;90.47;101706.66;4200436;28;20025;-67
2021/08/25 01:40:57;;;;;;;10.80;4.25;;;15.80;99.90;;;15.75;89.85;101713.47;4167567;28;20026;-67
2021/08/25 01:42:59;;;;;;;6.30;3.45;;;15.80;99.90;;;15.70;90.24;101706.00;4168551;28;20116;-67
2021/08/25 01:45:00;;;;;;;8.95;3.88;;;15.80;99.90;;;15.65;90.55;101702.97;4183682;28;20051;-67
2021/08/25 01:47:01;;;;;;;8.55;4.05;;;15.80;99.90;;;15.57;91.42;101710.13;4167478;28;20044;-67
2021/08/25 01:49:07;;;;;;;7.90;3.63;;;15.70;99.90;;;15.47;90.62;101673.88;4168458;28;20032;-67
2021/08/25 01:51:08;;;;;;;10.32;3.72;;;15.70;99.90;;;15.60;91.17;101693.84;4168388;28;20112;-68
2021/08/25 01:53:08;;;;;;;7.65;4.13;;;15.70;99.90;;;15.56;91.29;101698.66;4168647;28;20147;-67
2021/08/25 01:55:09;;;;;;;13.95;4.47;;;15.70;99.90;;;15.56;90.57;101701.31;4168134;28;20076;-68
2021/08/25 01:57:10;;;;;;;8.13;4.03;;;15.70;99.90;;;15.64;90.54;101695.19;4168402;28;20033;-67
2021/08/25 01:59:11;;;;;;;10.40;4.15;;;15.70;99.90;;;15.63;90.82;101698.81;4168427;28;20033;-67
2021/08/25 02:01:12;;;;;;;9.48;4.53;;;15.60;99.90;;;15.60;91.08;101692.00;4168374;28;20460;-67
2021/08/25 02:03:13;;;;;;;11.00;4.95;;;15.60;99.90;;;15.56;90.89;101698.66;4168672;28;20037;-67
2021/08/25 02:05:14;;;;;;;8.98;3.85;;;15.60;99.90;;;15.64;90.77;101693.34;4168478;28;20030;-67
2021/08/25 02:07:15;;;;;;;9.60;4.30;;;15.60;99.90;;;15.54;91.63;101689.19;4168267;28;20090;-67
2021/08/25 02:09:17;;;;;;;8.02;4.03;;;15.60;99.90;;;15.51;91.56;101695.66;4168516;28;20025;-67
2021/08/25 02:11:18;;;;;;;8.40;4.40;;;15.60;99.90;;;15.41;92.38;101692.31;4168408;28;20029;-67
2021/08/25 02:13:18;;;;;;;9.35;4.53;;;15.60;99.90;;;15.47;92.29;101689.84;4168319;28;20026;-67
2021/08/25 02:15:19;;;;;;;7.60;3.55;;;15.60;99.90;;;15.32;92.35;101686.13;4168013;28;20049;-67
2021/08/25 02:17:20;;;;;;;8.27;4.07;;;15.50;99.90;;;15.35;92.79;101688.44;4168477;28;20428;-67
2021/08/25 02:19:21;;;;;;;13.43;4.30;;;15.50;99.90;;;15.40;92.63;101693.28;4168505;28;20026;-67
2021/08/25 02:21:23;;;;;;;9.07;4.30;;;15.50;99.90;;;15.45;92.46;101683.81;4168548;28;20025;-67
2021/08/25 02:23:23;;;;;;;8.50;4.50;;;15.50;99.90;;;15.47;92.59;101681.84;4168403;28;20378;-67
2021/08/25 02:25:24;;;;;;;6.72;3.88;;;15.50;99.90;;;15.41;92.68;101684.34;4168433;28;20028;-67
2021/08/25 02:27:25;;;;;;;8.07;4.38;;;15.50;99.90;;;15.41;93.24;101689.66;4168285;28;20049;-67
2021/08/25 02:29:26;;;;;;;9.05;4.55;;;15.50;99.90;;;15.36;92.90;101686.63;4168287;28;20025;-67
2021/08/25 02:31:27;;;;;;;8.57;4.05;;;15.50;99.90;;;15.36;92.85;101687.47;4167963;28;20045;-67
2021/08/25 02:33:28;;;;;;;8.45;4.25;;;15.50;99.90;;;15.32;93.85;101687.97;4168356;28;20021;-67
2021/08/25 02:35:29;;;;;;;9.35;4.82;;;15.40;99.90;;;15.31;94.16;101689.81;4168281;28;20496;-67
2021/08/25 02:37:30;;;;;;;10.25;5.35;;;15.40;99.90;;;15.39;92.64;101676.50;4168232;28;20030;-67
2021/08/25 02:39:31;;;;;;;11.38;5.30;;;15.40;99.90;;;15.37;92.84;101673.19;4200087;28;20036;-67
2021/08/25 02:41:32;;;;;;;7.25;4.40;;;15.40;99.90;;;15.22;94.34;101680.16;4168177;28;20408;-67
2021/08/25 02:43:33;;;;;;;13.00;4.53;;;15.40;99.90;;;15.36;93.36;101670.69;4168284;28;20492;-67
2021/08/25 02:45:34;;;;;;;9.43;4.40;;;15.40;99.90;;;15.38;92.82;101674.03;4168114;28;20409;-67
2021/08/25 02:47:36;;;;;;;10.82;4.60;;;15.40;99.90;;;15.32;93.37;101678.16;4167996;28;20075;-67
2021/08/25 02:49:37;;;;;;;8.70;4.65;;;15.40;99.90;;;15.27;93.39;101671.66;4168012;28;20060;-67
2021/08/25 02:51:38;;;;;;;6.45;4.57;;;15.40;99.90;;;15.17;93.84;101676.31;4168190;28;20025;-67
2021/08/25 02:53:39;;;;;;;9.55;4.35;;;15.40;99.90;;;15.25;93.91;101677.16;4168066;28;20084;-67
2021/08/25 02:55:40;;;;;;;10.65;5.35;;;15.40;99.90;;;15.25;93.40;101671.84;4167834;28;20511;-67
2021/08/25 02:57:41;;;;;;;8.65;4.70;;;15.30;99.90;;;15.24;94.64;101683.47;4168023;28;20037;-67
2021/08/25 02:59:42;;;;;;;6.18;4.30;;;15.30;99.90;;;15.15;94.08;101668.50;4167989;28;20555;-67
2021/08/25 03:01:43;;;;;;;5.35;3.88;;;15.30;99.90;;;15.11;95.27;101680.47;4168041;28;20038;-67
2021/08/25 03:03:47;;;;;;;6.70;4.55;;;15.30;99.90;;;15.07;95.45;101688.91;4168214;28;20079;-67
2021/08/25 03:05:48;;;;;;;16.38;5.03;;;15.20;99.90;;;15.16;94.88;101670.16;4167986;28;20488;-67
2021/08/25 03:07:49;;;;;;;7.50;5.10;;;15.20;99.90;;;15.15;94.13;101667.66;4202561;28;20142;-67
2021/08/25 03:09:50;;;;;;;7.68;4.05;;;15.20;99.90;;;15.09;94.77;101674.47;4169850;28;20029;-67
2021/08/25 03:11:51;;;;;;;9.00;4.32;;;15.20;99.90;;;14.95;95.92;101664.47;4170944;28;20079;-67
2021/08/25 03:13:52;;;;;;;8.82;5.00;;;15.10;99.90;;;14.93;95.59;101672.56;4202667;28;20048;-66
2021/08/25 03:15:52;;;;;;;9.20;5.22;;;15.10;99.90;;;14.98;95.20;101661.47;4170811;28;20389;-67
2021/08/25 03:17:53;;;;;;;7.38;4.53;;;15.10;99.90;;;15.15;93.73;101665.84;4186118;28;20060;-67
2021/08/25 03:19:54;;;;;;;10.70;6.20;;;15.10;99.90;;;15.09;94.17;101668.31;4170720;28;20401;-67
2021/08/25 03:21:55;;;;;;;8.45;5.70;;;15.10;99.90;;;15.19;93.50;101669.84;4185947;28;20021;-67
2021/08/25 03:23:56;;;;;;;10.85;5.38;;;15.10;99.90;;;15.10;93.50;101665.50;4170989;28;20029;-67
2021/08/25 03:25:57;;;;;;;7.45;4.60;;;15.10;99.90;;;15.18;93.09;101668.16;4170752;28;20052;-67
2021/08/25 03:27:58;;;;;;;8.45;4.60;;;15.10;99.90;;;15.05;93.98;101654.53;4170588;28;20076;-67
2021/08/25 03:29:59;;;;;;;6.18;4.43;;;15.10;99.90;;;15.14;93.45;101656.19;4202239;28;20099;-67
2021/08/25 03:32:00;;;;;;;6.97;4.82;;;15.10;99.90;;;15.16;92.95;101653.38;4169554;28;20104;-67
2021/08/25 03:34:01;;;;;;;7.07;4.45;;;15.10;99.90;;;15.10;93.97;101662.00;4202545;28;20431;-67
2021/08/25 03:36:02;;;;;;;7.85;5.10;;;15.20;99.90;;;15.06;94.19;101658.84;4170610;28;20039;-67
2021/08/25 03:38:03;;;;;;;9.48;4.75;;;15.10;99.90;;;14.99;94.54;101651.69;4170466;28;20397;-67
2021/08/25 03:40:08;;;;;;;9.88;4.90;;;15.10;99.90;;;15.02;94.28;101657.53;4202593;28;20029;-67
2021/08/25 03:42:09;;;;;;;9.82;5.00;;;15.00;99.90;;;15.00;94.26;101654.16;4202365;28;20111;-67
2021/08/25 03:44:10;;;;;;;9.90;4.60;;;15.00;99.90;;;15.09;92.92;101647.88;4170477;28;20033;-67
2021/08/25 03:46:13;;;;;;;8.50;4.50;;;15.00;99.90;;;14.95;93.61;101640.56;4170120;28;20065;-67
2021/08/25 03:48:14;;;;;;;7.40;4.15;;;15.00;99.90;;;14.87;94.78;101641.34;4170382;28;20033;-67
2021/08/25 03:50:15;;;;;;;7.90;4.45;;;14.90;99.90;;;14.89;94.16;101652.66;4185578;28;20032;-67
2021/08/25 03:52:16;;;;;;;10.02;5.18;;;14.90;99.90;;;15.02;92.85;101652.19;4170530;28;20484;-66
2021/08/25 03:54:17;;;;;;;8.75;5.07;;;14.90;99.90;;;15.03;93.03;101651.19;4170206;28;20100;-66
2021/08/25 03:56:18;;;;;;;12.13;5.13;;;14.90;99.90;;;15.11;92.99;101648.56;4170037;28;20064;-67
2021/08/25 03:58:19;;;;;;;8.75;5.40;;;14.90;99.90;;;15.11;92.58;101645.91;4170277;28;20100;-66
2021/08/25 04:00:20;;;;;;;7.57;5.38;;;15.00;99.90;;;14.98;93.01;101642.88;4170023;28;20029;-66
2021/08/25 04:02:21;;;;;;;9.48;5.38;;;15.00;99.90;;;14.95;93.30;101644.03;4170160;28;20033;-68
2021/08/25 04:04:22;;;;;;;16.73;5.85;;;15.00;99.90;;;14.94;92.69;101633.56;4170322;28;20022;-67
2021/08/25 04:06:22;;;;;;;11.32;5.25;;;15.00;99.90;;;14.97;93.58;101643.88;4170179;28;20056;-67
2021/08/25 04:08:23;;;;;;;8.00;4.30;;;15.00;99.90;;;14.78;94.26;101628.22;4170034;28;20036;-66
2021/08/25 04:10:24;;;;;;;9.52;5.53;;;14.90;99.90;;;14.88;94.31;101639.53;4169991;28;20056;-67
2021/08/25 04:12:25;;;;;;;10.85;5.57;;;14.90;99.90;;;14.84;94.65;101644.31;4170061;28;20033;-67
2021/08/25 04:14:26;;;;;;;11.68;5.38;;;14.90;99.90;;;14.83;94.79;101642.69;4170118;28;20112;-67
2021/08/25 04:16:28;;;;;;;8.30;5.15;;;14.90;99.90;;;14.85;94.12;101645.16;4169872;28;20083;-67
2021/08/25 04:18:30;;;;;;;8.48;5.05;;;14.80;99.90;;;14.73;95.22;101647.28;4169450;28;20400;-66
2021/08/25 04:20:31;;;;;;;10.27;5.47;;;14.80;99.90;;;14.82;93.84;101634.84;4170005;28;20026;-66
2021/08/25 04:22:32;;;;;;;8.63;5.72;;;14.80;99.90;;;14.78;95.05;101638.84;4185104;28;20152;-66
2021/08/25 04:24:33;;;;;;;8.27;5.13;;;14.80;99.90;;;14.68;95.57;101638.13;4169912;28;20464;-67
2021/08/25 04:26:33;;;;;;;9.07;5.30;;;14.80;99.90;;;14.62;95.82;101634.31;4169757;28;20034;-67
2021/08/25 04:28:34;;;;;;;9.32;6.35;;;14.70;99.90;;;14.62;95.21;101625.50;4169789;28;20045;-67
2021/08/25 04:30:36;;;;;;;5.70;4.85;;;14.60;99.90;;;14.54;95.80;101617.53;4201408;28;20025;-66
2021/08/25 04:32:37;;;;;;;8.20;5.00;;;14.60;99.90;;;14.55;95.75;101638.59;4169852;28;20036;-67
2021/08/25 04:34:37;;;;;;;6.88;4.68;;;14.60;99.90;;;14.56;95.18;101634.94;4169649;28;20032;-66
2021/08/25 04:36:38;;;;;;;7.32;5.00;;;14.60;99.90;;;14.44;96.56;101632.72;4169664;28;20080;-67
2021/08/25 04:38:39;;;;;;;9.20;5.40;;;14.60;99.90;;;14.60;95.89;101632.81;4201508;28;20021;-67
2021/08/25 04:40:40;;;;;;;9.77;5.03;;;14.60;99.90;;;14.47;96.68;101641.22;4169605;28;20037;-67
2021/08/25 04:42:41;;;;;;;7.95;5.10;;;14.60;99.90;;;14.68;94.96;101636.31;4201556;28;20043;-67
2021/08/25 04:44:42;;;;;;;10.40;4.82;;;14.60;99.90;;;14.58;95.17;101630.31;4169192;28;20512;-67
2021/08/25 04:46:43;;;;;;;8.35;5.28;;;14.60;99.90;;;14.47;96.25;101646.53;4201435;28;20082;-67
2021/08/25 04:48:44;;;;;;;9.88;4.85;;;14.60;99.90;;;14.42;97.00;101645.34;4169455;28;20085;-67
2021/08/25 04:50:46;;;;;;;7.22;4.53;;;14.50;99.90;;;14.36;96.93;101639.69;4169460;28;20116;-67
2021/08/25 04:52:46;;;;;;;7.32;4.68;;;14.50;99.90;;;14.29;97.29;101646.56;4169208;28;20033;-67
2021/08/25 04:54:47;;;;;;;9.30;5.80;;;14.40;99.90;;;14.31;96.88;101649.91;4169520;28;20017;-67
2021/08/25 04:56:48;;;;;;;8.32;5.07;;;14.40;99.90;;;14.24;97.09;101651.53;4168969;28;20045;-67
2021/08/25 04:58:49;;;;;;;7.45;5.30;;;14.40;99.90;;;14.09;97.32;101636.34;4169332;28;20135;-67
2021/08/25 05:00:51;;;;;;;6.65;4.55;;;14.30;99.90;;;14.15;97.70;101647.16;4168932;28;20045;-67
2021/08/25 05:02:52;;;;;;;5.80;4.63;;;14.30;99.90;;;14.11;98.08;101648.47;4169279;28;20112;-66
2021/08/25 05:04:53;;;;;;;6.70;4.82;;;14.20;99.90;;;14.02;98.06;101648.56;4169182;28;20030;-67
2021/08/25 05:06:54;;;;;;;8.57;5.20;;;14.20;99.90;;;13.94;98.58;101649.34;4169126;28;20051;-67
2021/08/25 05:08:55;;;;;;;7.03;4.93;;;14.20;99.90;;;13.96;98.63;101657.13;4200767;28;20115;-67
2021/08/25 05:10:55;;;;;;;9.40;5.72;;;14.10;99.90;;;13.89;98.84;101656.94;4169182;28;20018;-67
2021/08/25 05:12:56;;;;;;;11.75;5.32;;;14.10;99.90;;;13.94;98.65;101657.31;4169094;28;20051;-67
2021/08/25 05:14:57;;;;;;;8.05;5.30;;;14.10;99.90;;;13.94;98.77;101664.44;4168845;28;20485;-67
2021/08/25 05:16:58;;;;;;;9.45;5.13;;;14.10;99.90;;;13.95;98.88;101658.97;4168925;28;20025;-67
2021/08/25 05:18:59;;;;;;;10.07;5.68;;;14.10;99.90;;;13.94;98.82;101665.28;4169127;28;20401;-67
2021/08/25 05:21:00;;;;;;;7.60;5.35;;;14.00;99.90;;;14.04;98.69;101665.97;4168942;28;20036;-67
2021/08/25 05:23:01;;;;;;;10.52;6.25;;;14.10;99.90;;;14.14;97.06;101661.41;4168939;28;20033;-67
2021/08/25 05:25:03;;;;;;;6.35;5.03;;;14.10;99.90;;;14.02;97.76;101651.22;4200665;28;20025;-67
2021/08/25 05:27:04;;;;;;;7.13;5.55;;;14.10;99.90;;;13.96;98.42;101660.63;4200808;28;20055;-66
2021/08/25 05:29:06;;;;;;;8.45;5.47;;;14.10;99.90;;;13.98;98.78;101656.00;4168091;28;20037;-66
2021/08/25 05:31:07;;;;;;;8.35;5.80;;;14.10;99.90;;;13.94;97.88;101652.00;4200518;28;20108;-66
2021/08/25 05:33:08;;;;;;;8.77;5.13;;;14.10;99.90;;;13.98;98.01;101650.69;4167425;28;20035;-66
2021/08/25 05:35:10;;;;;;;10.82;6.00;;;14.10;99.90;;;13.99;98.08;101649.72;4184128;28;20025;-66
2021/08/25 05:37:11;;;;;;;7.82;5.40;;;14.10;99.90;;;14.05;97.92;101650.91;4200715;28;20056;-66
2021/08/25 05:39:12;;;;;;;8.10;5.32;;;14.10;99.90;;;14.03;97.86;101648.41;4168829;28;20112;-66
2021/08/25 05:41:13;;;;;;;6.78;4.90;;;14.20;99.90;;;14.12;97.75;101646.66;4200507;28;20047;-66
2021/08/25 05:43:17;;;;;;;5.85;5.22;;;14.20;99.90;;;14.16;97.67;101653.28;4168478;28;20025;-66
2021/08/25 05:45:18;;;;;;;8.23;5.40;;;14.20;99.90;;;14.17;97.18;101650.50;4160907;28;20029;-66
2021/08/25 05:47:19;;;;;;;6.70;5.85;;;14.20;99.90;;;14.19;97.44;101645.84;4184937;28;20119;-66
2021/08/25 05:49:20;;;;;;;10.63;5.40;;;14.30;99.90;;;14.20;97.65;101650.19;4152175;28;20591;-66
2021/08/25 05:51:21;;;;;;;9.88;6.47;;;14.30;99.90;;;14.34;95.64;101643.47;4153660;28;20046;-66
2021/08/25 05:53:22;;;;;;;7.90;5.85;;;14.30;99.90;;;14.33;96.54;101647.13;4184863;28;20032;-66
2021/08/25 05:55:23;;;;;;;8.98;5.95;;;14.40;99.90;;;14.35;96.48;101656.59;4153323;28;20026;-66
2021/08/25 05:57:24;;;;;;;10.45;5.60;;;14.40;99.90;;;14.35;96.74;101648.63;4169347;28;20056;-66
2021/08/25 05:59:27;;;;;;;13.30;6.07;;;14.50;99.90;;;14.35;97.17;101650.44;4169722;28;20069;-66
2021/08/25 06:01:28;;;;;;;7.38;5.22;;;14.40;99.90;;;14.40;95.82;101651.63;4169548;28;20117;-67
2021/08/25 06:03:29;;;;;;;13.98;6.18;;;14.50;99.90;;;14.36;96.78;101645.00;4164664;28;20029;-67
2021/08/25 06:05:30;;;;;;;9.63;6.57;;;14.50;99.90;;;14.47;95.98;101653.66;4169180;28;20512;-67
2021/08/25 06:07:31;;;;;;;12.35;5.25;;;14.50;99.90;;;14.42;95.59;101634.72;4166875;28;20029;-67
2021/08/25 06:09:32;;;;;;;9.68;5.07;;;14.60;99.90;;;14.58;94.70;101648.06;4168857;28;20022;-67
2021/08/25 06:11:36;;;;;;;11.52;5.57;;;14.70;99.90;;;14.63;94.72;101645.78;4169160;28;20022;-67
2021/08/25 06:13:38;;;;;;;8.73;5.43;;;14.70;99.90;;;14.70;94.39;101650.25;4200489;28;20496;-67
2021/08/25 06:15:39;;;;;;;9.40;6.00;;;14.80;99.90;;;14.62;94.36;101652.91;4168271;28;20025;-67
2021/08/25 06:17:40;;;;;;;10.65;6.07;;;14.80;99.90;;;14.51;95.25;101650.53;4167911;28;20040;-67
2021/08/25 06:19:42;;;;;;;7.10;5.47;;;14.80;99.90;;;14.64;94.90;101639.44;4167779;28;20171;-67
2021/08/25 06:21:47;;;;;;;8.27;5.97;;;14.80;99.90;;;14.70;94.21;101636.97;4167843;28;20026;-67
2021/08/25 06:23:48;;;;;;;8.95;5.85;;;14.90;99.90;;;14.73;94.71;101635.81;4167960;28;20026;-68
2021/08/25 06:25:50;;;;;;;10.70;6.00;;;14.90;99.90;;;14.72;94.68;101650.13;4167753;28;20092;-67
2021/08/25 06:27:51;;;;;;;12.90;6.53;;;14.90;99.90;;;14.85;94.60;101647.81;4167673;28;20045;-67
2021/08/25 06:29:51;;;;;;;7.03;5.93;;;15.00;99.90;;;14.83;93.82;101637.38;4167738;28;20025;-67
2021/08/25 06:31:52;;;;;;;8.02;5.40;;;15.00;99.90;;;14.91;93.86;101649.81;4200082;28;20507;-68
2021/08/25 06:33:53;;;;;;;9.48;5.75;;;15.10;99.90;;;14.88;94.39;101644.84;4168008;28;20108;-67
2021/08/25 06:35:54;;;;;;;9.43;5.80;;;15.10;99.90;;;14.75;93.94;101623.25;4167754;28;20088;-67
2021/08/25 06:37:55;;;;;;;9.93;5.95;;;15.10;99.90;;;14.85;95.06;101645.16;4167718;28;20112;-68
2021/08/25 06:39:56;;;;;;;7.45;5.47;;;15.20;99.90;;;14.89;93.70;101652.66;4199978;28;20021;-68
2021/08/25 06:41:57;;;;;;;9.40;5.28;;;15.20;99.90;;;14.97;94.15;101662.47;4169876;28;20099;-67
2021/08/25 06:43:58;;;;;;;8.73;5.75;;;15.30;99.90;;;15.04;93.73;101668.81;4171439;28;20044;-68
2021/08/25 06:45:59;;;;;;;10.07;5.55;;;15.30;99.90;;;15.02;93.34;101654.88;4160798;28;20025;-67
2021/08/25 06:48:00;;;;;;;8.93;6.38;;;15.30;99.90;;;15.08;93.14;101666.66;4155885;28;20030;-67
2021/08/25 06:50:01;;;;;;;8.05;5.38;;;15.40;99.90;;;14.87;93.65;101644.00;4188170;28;20088;-67
2021/08/25 06:52:03;;;;;;;9.45;5.80;;;15.40;99.90;;;15.04;93.47;101657.34;4156788;28;20033;-67
2021/08/25 06:54:04;;;;;;;12.52;5.45;;;15.40;99.90;;;15.13;93.44;101667.84;4155707;28;20026;-67
2021/08/25 06:56:05;;;;;;;10.75;5.75;;;15.50;99.90;;;15.08;93.65;101651.56;4162890;28;20045;-68
2021/08/25 06:58:06;;;;;;;7.68;5.88;;;15.50;99.90;;;15.09;93.62;101657.69;4172537;28;20127;-67
2021/08/25 07:00:08;;;;;;;7.88;5.22;;;15.50;99.90;;;15.11;93.98;101645.91;4172042;28;20507;-67
2021/08/25 07:02:09;;;;;;;9.95;5.93;;;15.50;99.90;;;15.13;93.75;101624.47;4172381;28;20392;-68
2021/08/25 07:04:10;;;;;;;6.65;5.22;;;15.60;99.90;;;15.30;92.76;101634.13;4171780;28;20036;-68
2021/08/25 07:06:11;;;;;;;8.45;5.57;;;15.60;99.90;;;15.20;93.38;101634.28;4172139;28;20037;-68
2021/08/25 07:08:12;;;;;;;8.57;5.32;;;15.60;99.90;;;15.31;92.61;101636.63;4172104;28;20029;-68
2021/08/25 07:10:13;;;;;;;10.57;5.40;;;15.70;99.90;;;15.33;91.97;101636.44;4172085;28;20432;-68
2021/08/25 07:12:14;;;;;;;10.98;5.65;;;15.70;99.90;;;15.35;92.00;101637.94;4171916;28;20489;-68
2021/08/25 07:14:15;;;;;;;8.38;5.68;;;15.80;99.90;;;15.51;91.96;101642.47;4172176;28;20032;-68
2021/08/25 07:16:17;;;;;;;11.57;5.53;;;15.80;99.90;;;15.31;91.66;101614.53;4203554;28;20023;-68
2021/08/25 07:18:18;;;;;;;9.35;6.20;;;15.90;99.90;;;15.40;91.57;101630.31;4170613;28;20453;-68
2021/08/25 07:20:19;;;;;;;7.60;5.22;;;15.90;99.90;;;15.41;91.85;101618.66;4171856;28;20030;-68
2021/08/25 07:22:20;;;;;;;6.35;5.03;;;15.90;99.90;;;15.47;91.97;101623.34;4196600;28;20085;-68
2021/08/25 07:24:21;;;;;;;8.23;5.00;;;16.00;99.90;;;15.52;92.18;101616.72;4187194;28;20025;-68
2021/08/25 07:26:22;;;;;;;7.30;5.07;;;16.00;99.90;;;15.63;91.83;101619.88;4178222;28;20090;-68
2021/08/25 07:28:23;;;;;;;7.75;5.45;;;16.10;99.90;;;15.60;91.48;101593.59;4171425;28;20025;-69
2021/08/25 07:30:24;;;;;;;8.65;5.50;;;16.10;99.90;;;15.77;91.04;101605.06;4203504;28;20035;-67
2021/08/25 07:32:25;;;;;;;8.52;5.10;;;16.20;99.90;;;15.79;89.41;101605.72;4170905;28;20029;-68
2021/08/25 07:34:27;;;;;;;9.05;5.47;;;16.30;99.90;;;15.68;90.08;101596.25;4172346;28;20041;-70
2021/08/25 07:36:28;;;;;;;6.85;5.05;;;16.30;99.90;;;15.83;90.51;101604.41;4186874;28;20029;-69
2021/08/25 07:38:29;;;;;;;6.55;4.82;;;16.30;99.90;;;16.00;89.83;101611.34;4172020;28;20170;-69
2021/08/25 07:40:30;;;;;;;7.88;6.15;;;16.40;99.90;;;16.04;89.36;101599.34;4172230;28;20025;-67
2021/08/25 07:42:31;;;;;;;9.35;5.55;;;16.50;99.90;;;16.10;89.68;101601.31;4187347;28;20553;-67
2021/08/25 07:44:32;;;;;;;7.82;5.20;;;16.50;99.90;;;16.09;89.82;101599.69;4171748;28;20029;-68
2021/08/25 07:46:33;;;;;;;10.25;5.35;;;16.60;99.90;;;16.12;89.31;101591.34;4168376;28;20049;-68
2021/08/25 07:48:34;;;;;;;8.63;5.93;;;16.60;99.90;;;16.13;89.52;101594.84;4170240;28;20044;-68
2021/08/25 07:50:35;;;;;;;7.53;5.13;;;16.70;99.90;;;16.17;89.52;101593.47;4170435;28;20033;-68
2021/08/25 07:52:36;;;;;;;9.20;5.03;;;16.70;99.90;;;16.36;88.66;101590.44;4169633;28;20365;-67
2021/08/25 07:54:37;;;;;;;8.70;5.88;;;16.80;99.90;;;16.42;88.36;101590.56;4202193;28;20029;-67
2021/08/25 07:56:38;;;;;;;10.20;5.88;;;16.90;99.90;;;16.39;87.24;101598.06;4170171;28;20056;-68
2021/08/25 07:58:38;;;;;;;8.05;5.20;;;16.90;99.90;;;16.50;87.38;101597.69;4170289;28;20401;-69
2021/08/25 08:00:40;;;;;;;7.13;5.30;;;17.00;99.90;;;16.43;86.97;101580.72;4170471;28;20095;-68
2021/08/25 08:02:41;;;;;;;9.00;5.80;;;17.00;99.90;;;16.56;86.88;101599.69;4170993;28;20036;-68
2021/08/25 08:04:42;;;;;;;6.88;5.35;;;17.10;99.90;;;16.49;86.12;101591.53;4170995;28;20029;-68
2021/08/25 08:06:43;;;;;;;8.45;5.55;;;17.10;99.90;;;16.47;87.09;101595.38;4170914;28;20511;-68
2021/08/25 08:08:44;;;;;;;8.18;5.55;;;17.10;99.90;;;16.63;86.92;101602.47;4185987;28;20094;-68
2021/08/25 08:10:45;;;;;;;10.45;5.05;;;17.20;99.90;;;16.70;86.56;101608.75;4169764;28;20397;-68
2021/08/25 08:12:46;;;;;;;8.95;5.53;;;17.20;99.90;;;16.79;86.38;101618.38;4170757;28;20109;-68
2021/08/25 08:14:47;;;;;;;9.13;5.93;;;17.30;99.90;;;16.88;85.31;101622.66;4170543;28;20025;-68
2021/08/25 08:16:52;;;;;;;9.30;5.80;;;17.30;99.90;;;16.77;85.81;101615.88;4170926;28;20072;-68
2021/08/25 08:20:57;;;;;;;;;;;17.40;99.90;;;16.80;85.91;101614.72;4169997;28;20033;-68
2021/08/25 08:22:58;;;;;;;9.20;5.78;;;17.50;99.90;;;16.97;86.21;101621.59;4185770;28;19974;-68
2021/08/25 08:25:01;;;;;;;7.32;5.45;;;17.50;99.90;;;17.07;85.87;101611.53;4153395;28;20022;-70
2021/08/25 08:27:04;;;;;;;9.85;4.90;;;17.60;99.90;;;17.06;86.18;101596.53;4156424;28;20080;-68